createdAt,value
2022-12-06T00:02:34.402Z,99.90
2022-12-06T00:05:41.885Z,99.90
2022-12-06T00:08:51.632Z,99.90
2022-12-06T00:11:54.388Z,99.90
2022-12-06T00:14:56.465Z,99.90
2022-12-06T00:17:58.598Z,99.90
2022-12-06T00:21:25.077Z,99.90
2022-12-06T00:24:29.101Z,99.90
2022-12-06T00:27:31.243Z,99.90
2022-12-06T00:30:33.465Z,99.90
2022-12-06T00:33:37.025Z,99.90
2022-12-06T00:36:41.336Z,99.90
2022-12-06T00:39:43.454Z,99.90
2022-12-06T00:42:45.629Z,99.90
2022-12-06T00:45:47.841Z,99.90
2022-12-06T00:48:51.011Z,99.90
2022-12-06T00:51:53.078Z,99.90
2022-12-06T00:54:55.164Z,99.90
2022-12-06T00:57:57.190Z,99.90
2022-12-06T01:01:18.916Z,99.90
2022-12-06T01:04:21.292Z,99.90
2022-12-06T01:07:23.391Z,99.90
2022-12-06T01:10:28.156Z,99.90
2022-12-06T01:13:30.183Z,99.90
2022-12-06T01:16:33.541Z,99.90
2022-12-06T01:19:35.657Z,99.90
2022-12-06T01:22:37.666Z,99.90
2022-12-06T01:25:39.753Z,99.90
2022-12-06T01:28:41.730Z,99.90
2022-12-06T01:31:43.737Z,99.90
2022-12-06T01:34:45.711Z,99.90
2022-12-06T01:37:47.749Z,99.90
2022-12-06T01:40:50.025Z,99.90
2022-12-06T01:43:52.634Z,99.90
2022-12-06T01:46:55.089Z,99.90
2022-12-06T01:50:00.305Z,99.90
2022-12-06T01:53:13.137Z,99.90
2022-12-06T01:56:15.552Z,99.90
2022-12-06T01:59:17.827Z,99.90
2022-12-06T02:02:20.240Z,99.90
2022-12-06T02:05:22.291Z,99.90
2022-12-06T02:08:26.121Z,99.90
2022-12-06T02:11:32.147Z,99.90
2022-12-06T02:14:37.134Z,99.90
2022-12-06T02:17:48.534Z,99.90
2022-12-06T02:21:40.243Z,99.90
2022-12-06T02:24:58.049Z,99.90
2022-12-06T02:28:18.461Z,99.90
2022-12-06T02:31:52.656Z,99.90
2022-12-06T02:35:31.223Z,99.90
2022-12-06T02:38:41.230Z,99.90
2022-12-06T02:42:02.275Z,99.90
2022-12-06T02:45:11.244Z,99.90
2022-12-06T02:48:16.251Z,99.90
2022-12-06T02:51:19.852Z,99.90
2022-12-06T02:54:26.403Z,99.90
2022-12-06T02:57:48.156Z,99.90
2022-12-06T03:00:58.108Z,99.90
2022-12-06T03:04:06.124Z,99.90
2022-12-06T03:07:27.343Z,99.90
2022-12-06T03:10:50.916Z,99.90
2022-12-06T03:14:02.585Z,99.90
2022-12-06T03:17:23.969Z,99.90
2022-12-06T03:20:58.943Z,99.90
2022-12-06T03:24:01.508Z,99.90
2022-12-06T03:27:23.636Z,99.90
2022-12-06T03:30:25.717Z,99.90
2022-12-06T03:33:30.011Z,99.90
2022-12-06T03:36:33.320Z,99.90
2022-12-06T03:39:50.056Z,99.90
2022-12-06T03:42:52.850Z,99.90
2022-12-06T03:46:11.356Z,99.90
2022-12-06T03:49:27.255Z,99.90
2022-12-06T03:52:30.243Z,99.90
2022-12-06T03:55:32.345Z,99.90
2022-12-06T03:58:34.359Z,99.90
2022-12-06T04:01:36.885Z,99.90
2022-12-06T04:04:40.611Z,99.90
2022-12-06T04:07:42.718Z,99.90
2022-12-06T04:10:44.745Z,99.90
2022-12-06T04:13:56.911Z,99.90
2022-12-06T04:17:18.126Z,99.90
2022-12-06T04:20:20.136Z,99.90
2022-12-06T04:23:22.198Z,99.90
2022-12-06T04:26:25.516Z,99.90
2022-12-06T04:29:46.102Z,99.90
2022-12-06T04:33:06.734Z,99.90
2022-12-06T04:36:27.382Z,99.90
2022-12-06T04:39:29.832Z,99.90
2022-12-06T04:42:50.495Z,99.90
2022-12-06T04:45:53.515Z,99.90
2022-12-06T04:48:55.502Z,99.90
2022-12-06T04:51:57.540Z,99.90
2022-12-06T04:54:59.579Z,99.90
2022-12-06T04:58:01.652Z,99.90
2022-12-06T05:01:04.105Z,99.90
2022-12-06T05:04:06.353Z,99.90
2022-12-06T05:07:09.894Z,99.90
2022-12-06T05:10:12.241Z,99.90
2022-12-06T05:13:15.936Z,99.90
2022-12-06T05:16:29.834Z,99.90
2022-12-06T05:19:32.544Z,99.90
2022-12-06T05:22:36.031Z,99.90
2022-12-06T05:25:38.217Z,99.90
2022-12-06T05:28:40.711Z,99.90
2022-12-06T05:31:42.827Z,99.90
2022-12-06T05:34:44.862Z,99.90
2022-12-06T05:37:47.039Z,99.90
2022-12-06T05:40:49.389Z,99.90
2022-12-06T05:43:51.571Z,99.90
2022-12-06T05:46:53.616Z,99.90
2022-12-06T05:49:55.651Z,99.90
2022-12-06T05:52:59.593Z,99.90
2022-12-06T05:56:10.713Z,99.90
2022-12-06T05:59:12.952Z,99.90
2022-12-06T06:02:15.085Z,99.90
2022-12-06T06:05:17.553Z,99.90
2022-12-06T06:08:19.716Z,99.90
2022-12-06T06:11:21.872Z,99.90
2022-12-06T06:14:24.138Z,99.90
2022-12-06T06:17:26.154Z,99.90
2022-12-06T06:20:28.514Z,99.90
2022-12-06T06:23:30.823Z,99.90
2022-12-06T06:26:32.827Z,99.90
2022-12-06T06:29:34.916Z,99.90
2022-12-06T06:32:37.691Z,99.90
2022-12-06T06:35:40.182Z,99.90
2022-12-06T06:38:42.229Z,99.90
2022-12-06T06:41:45.022Z,99.90
2022-12-06T06:44:47.091Z,99.90
2022-12-06T06:47:49.175Z,99.90
2022-12-06T06:50:56.763Z,99.90
2022-12-06T06:54:00.398Z,99.90
2022-12-06T06:57:03.113Z,99.90
2022-12-06T07:00:05.833Z,99.90
2022-12-06T07:03:14.169Z,99.90
2022-12-06T07:06:16.292Z,99.90
2022-12-06T07:09:20.826Z,99.90
2022-12-06T07:12:23.064Z,99.90
2022-12-06T07:15:25.344Z,99.90
2022-12-06T07:18:27.343Z,99.90
2022-12-06T07:21:29.679Z,99.90
2022-12-06T07:24:35.667Z,99.90
2022-12-06T07:27:41.584Z,99.90
2022-12-06T07:30:43.621Z,99.90
2022-12-06T07:33:46.744Z,99.90
2022-12-06T07:36:49.529Z,99.90
2022-12-06T07:39:52.480Z,99.90
2022-12-06T07:43:13.180Z,99.90
2022-12-06T07:46:17.190Z,99.90
2022-12-06T07:49:19.512Z,99.90
2022-12-06T07:52:22.015Z,99.90
2022-12-06T07:55:24.026Z,99.90
2022-12-06T07:58:26.080Z,99.90
2022-12-06T08:01:28.640Z,99.90
2022-12-06T08:04:30.886Z,99.90
2022-12-06T08:07:33.058Z,99.90
2022-12-06T08:10:35.176Z,99.90
2022-12-06T08:13:37.820Z,99.90
2022-12-06T08:16:41.464Z,99.90
2022-12-06T08:19:43.472Z,99.90
2022-12-06T08:22:45.623Z,99.90
2022-12-06T08:25:47.602Z,99.90
2022-12-06T08:28:49.937Z,99.90
2022-12-06T08:31:51.956Z,99.90
2022-12-06T08:34:53.988Z,99.90
2022-12-06T08:37:55.927Z,99.90
2022-12-06T08:40:59.334Z,99.90
2022-12-06T08:44:02.612Z,99.90
2022-12-06T08:47:04.844Z,99.90
2022-12-06T08:50:07.588Z,99.90
2022-12-06T08:53:09.609Z,99.90
2022-12-06T08:56:11.900Z,99.90
2022-12-06T08:59:14.474Z,99.80
2022-12-06T09:02:16.548Z,97.10
2022-12-06T09:05:18.671Z,95.60
2022-12-06T09:08:20.723Z,93.70
2022-12-06T09:11:23.016Z,93.10
2022-12-06T09:14:24.975Z,92.50
2022-12-06T09:17:27.089Z,92.70
2022-12-06T09:20:29.324Z,92.30
2022-12-06T09:23:31.356Z,91.80
2022-12-06T09:26:33.629Z,92.60
2022-12-06T09:29:40.763Z,93.70
2022-12-06T09:32:43.063Z,93.00
2022-12-06T09:35:45.192Z,91.00
2022-12-06T09:38:51.610Z,91.20
2022-12-06T09:42:15.299Z,91.50
2022-12-06T09:45:52.768Z,92.20
2022-12-06T09:48:58.647Z,93.80
2022-12-06T09:52:24.995Z,94.10
2022-12-06T09:55:43.747Z,94.60
2022-12-06T09:59:03.627Z,94.50
2022-12-06T10:02:25.882Z,94.60
2022-12-06T10:05:39.300Z,95.20
2022-12-06T10:09:02.822Z,95.00
2022-12-06T10:12:43.707Z,94.50
2022-12-06T10:16:12.381Z,94.70
2022-12-06T10:19:39.163Z,94.70
2022-12-06T10:23:22.899Z,91.90
2022-12-06T10:26:43.027Z,91.00
2022-12-06T10:29:44.979Z,92.60
2022-12-06T10:33:20.763Z,93.00
2022-12-06T10:36:54.775Z,93.60
2022-12-06T10:40:12.629Z,94.50
2022-12-06T10:43:37.911Z,95.40
2022-12-06T10:47:04.635Z,94.20
2022-12-06T10:50:17.570Z,93.70
2022-12-06T10:53:24.234Z,93.60
2022-12-06T10:56:32.199Z,91.60
2022-12-06T10:59:43.809Z,91.30
2022-12-06T11:03:27.195Z,92.50
2022-12-06T11:06:42.599Z,91.70
2022-12-06T11:09:48.464Z,91.70
2022-12-06T11:13:00.770Z,91.20
2022-12-06T11:16:22.802Z,92.30
2022-12-06T11:19:35.634Z,92.80
2022-12-06T11:22:41.325Z,91.80
2022-12-06T11:26:12.136Z,92.70
2022-12-06T11:29:16.252Z,93.20
2022-12-06T11:32:19.330Z,93.30
2022-12-06T11:35:25.265Z,94.50
2022-12-06T11:38:27.575Z,95.70
2022-12-06T11:41:33.717Z,96.90
2022-12-06T11:44:49.651Z,97.60
2022-12-06T11:47:55.083Z,98.70
2022-12-06T11:50:57.421Z,99.10
2022-12-06T11:54:18.127Z,99.50
2022-12-06T11:57:35.897Z,99.90
2022-12-06T12:00:55.093Z,99.90
2022-12-06T12:03:57.271Z,99.90
2022-12-06T12:07:04.454Z,99.90
2022-12-06T12:10:33.558Z,99.90
2022-12-06T12:13:44.812Z,99.90
2022-12-06T12:16:50.011Z,99.90
2022-12-06T12:20:07.631Z,99.90
2022-12-06T12:23:30.769Z,99.90
2022-12-06T12:26:41.634Z,99.90
2022-12-06T12:29:43.655Z,99.90
2022-12-06T12:32:47.607Z,99.90
2022-12-06T12:35:52.849Z,99.90
2022-12-06T12:39:03.077Z,99.90
2022-12-06T12:42:25.216Z,99.90
2022-12-06T12:45:27.876Z,99.90
2022-12-06T12:48:30.250Z,99.90
2022-12-06T12:51:35.596Z,99.90
2022-12-06T12:54:38.087Z,99.90
2022-12-06T12:57:41.699Z,99.90
2022-12-06T13:00:48.476Z,99.90
2022-12-06T13:04:05.309Z,99.90
2022-12-06T13:07:10.426Z,99.90
2022-12-06T13:10:32.140Z,99.90
2022-12-06T13:13:40.477Z,99.90
2022-12-06T13:16:45.066Z,99.90
2022-12-06T13:19:53.248Z,99.90
2022-12-06T13:23:00.438Z,99.90
2022-12-06T13:26:10.224Z,99.90
2022-12-06T13:29:36.287Z,99.90
2022-12-06T13:33:00.820Z,99.90
2022-12-06T13:36:04.612Z,99.90
2022-12-06T13:39:36.724Z,99.90
2022-12-06T13:42:38.740Z,99.90
2022-12-06T13:45:47.115Z,99.90
2022-12-06T13:49:01.329Z,99.90
2022-12-06T13:52:03.469Z,99.90
2022-12-06T13:55:24.065Z,99.90
2022-12-06T13:58:26.211Z,99.90
2022-12-06T14:01:40.930Z,99.90
2022-12-06T14:04:43.252Z,99.90
2022-12-06T14:07:45.340Z,99.90
2022-12-06T14:10:47.708Z,99.90
2022-12-06T14:13:55.623Z,99.90
2022-12-06T14:17:02.929Z,99.90
2022-12-06T14:20:19.009Z,99.90
2022-12-06T14:23:35.295Z,99.90
2022-12-06T14:26:40.659Z,99.90
2022-12-06T14:30:15.411Z,99.90
2022-12-06T14:33:23.109Z,99.90
2022-12-06T14:36:39.184Z,99.90
2022-12-06T14:39:55.407Z,99.90
2022-12-06T14:43:02.130Z,99.90
2022-12-06T14:46:08.428Z,99.90
2022-12-06T14:49:40.963Z,99.90
2022-12-06T14:53:03.803Z,99.90
2022-12-06T14:56:20.491Z,99.90
2022-12-06T15:00:03.000Z,99.90
2022-12-06T15:03:13.777Z,99.90
2022-12-06T15:06:22.222Z,99.90
2022-12-06T15:09:25.161Z,99.90
2022-12-06T15:12:46.871Z,99.90
2022-12-06T15:16:01.824Z,99.90
2022-12-06T15:19:04.056Z,99.90
2022-12-06T15:22:24.917Z,99.90
2022-12-06T15:25:27.861Z,99.90
2022-12-06T15:28:30.009Z,99.90
2022-12-06T15:31:32.619Z,99.90
2022-12-06T15:34:35.372Z,99.90
2022-12-06T15:37:39.179Z,99.90
2022-12-06T15:40:44.884Z,99.90
2022-12-06T15:43:47.531Z,99.90
2022-12-06T15:46:50.300Z,99.90
2022-12-06T15:49:54.083Z,99.90
2022-12-06T15:52:56.108Z,99.90
2022-12-06T15:55:58.147Z,99.90
2022-12-06T15:59:00.163Z,99.90
2022-12-06T16:02:03.024Z,99.90
2022-12-06T16:05:05.905Z,99.90
2022-12-06T16:08:08.859Z,99.90
2022-12-06T16:11:13.408Z,99.90
2022-12-06T16:14:15.336Z,99.90
2022-12-06T16:17:17.384Z,99.90
2022-12-06T16:20:31.472Z,99.90
2022-12-06T16:27:14.230Z,99.90
2022-12-06T16:30:16.723Z,99.90
2022-12-06T16:33:20.753Z,99.90
2022-12-06T16:36:30.013Z,99.90
2022-12-06T16:39:33.982Z,99.90
2022-12-06T16:42:36.074Z,99.90
2022-12-06T16:45:41.188Z,99.90
2022-12-06T16:48:43.324Z,99.90
2022-12-06T16:51:45.704Z,99.90
2022-12-06T16:54:47.779Z,99.90
2022-12-06T16:57:50.574Z,99.90
2022-12-06T17:00:52.621Z,99.90
2022-12-06T17:03:57.307Z,99.90
2022-12-06T17:06:59.309Z,99.90
2022-12-06T17:10:01.635Z,99.90
2022-12-06T17:13:04.507Z,99.90
2022-12-06T17:16:07.880Z,99.90
2022-12-06T17:19:16.225Z,99.90
2022-12-06T17:22:19.420Z,99.90
2022-12-06T17:25:21.453Z,99.90
2022-12-06T17:28:23.730Z,99.90
2022-12-06T17:31:27.485Z,99.90
2022-12-06T17:34:29.556Z,99.90
2022-12-06T17:37:31.602Z,99.90
2022-12-06T17:40:33.612Z,99.90
2022-12-06T17:43:35.625Z,99.90
2022-12-06T17:46:39.377Z,99.90
2022-12-06T17:49:44.336Z,99.90
2022-12-06T17:52:46.685Z,99.90
2022-12-06T17:55:50.554Z,99.90
2022-12-06T17:59:04.764Z,99.90
2022-12-06T18:02:15.879Z,99.90
2022-12-06T18:05:19.037Z,99.90
2022-12-06T18:08:21.175Z,99.90
2022-12-06T18:11:24.411Z,99.90
2022-12-06T18:14:26.457Z,99.90
2022-12-06T18:17:28.636Z,99.90
2022-12-06T18:20:30.896Z,99.90
2022-12-06T18:23:33.085Z,99.90
2022-12-06T18:26:35.549Z,99.90
2022-12-06T18:29:37.904Z,99.90
2022-12-06T18:32:40.907Z,99.90
2022-12-06T18:35:43.222Z,99.90
2022-12-06T18:38:47.442Z,99.90
2022-12-06T18:41:49.490Z,99.90
2022-12-06T18:44:57.911Z,99.90
2022-12-06T18:48:03.602Z,99.90
2022-12-06T18:51:10.730Z,99.90
2022-12-06T18:54:14.133Z,99.90
2022-12-06T18:57:16.468Z,99.90
2022-12-06T19:00:18.854Z,99.90
2022-12-06T19:03:21.126Z,99.90
2022-12-06T19:06:27.983Z,99.90
2022-12-06T19:09:30.320Z,99.90
2022-12-06T19:12:32.408Z,99.90
2022-12-06T19:15:34.446Z,99.90
2022-12-06T19:18:36.449Z,99.90
2022-12-06T19:21:40.991Z,99.90
2022-12-06T19:24:43.175Z,99.90
2022-12-06T19:27:45.238Z,99.90
2022-12-06T19:30:59.846Z,99.90
2022-12-06T19:34:02.005Z,99.90
2022-12-06T19:37:04.139Z,99.90
2022-12-06T19:40:06.929Z,99.90
2022-12-06T19:43:27.951Z,99.90
2022-12-06T19:46:31.442Z,99.90
2022-12-06T19:49:33.525Z,99.90
2022-12-06T19:52:35.840Z,99.90
2022-12-06T19:55:37.881Z,99.90
2022-12-06T19:58:40.764Z,99.90
2022-12-06T20:01:45.182Z,99.90
2022-12-06T20:04:48.884Z,99.90
2022-12-06T20:07:51.027Z,99.90
2022-12-06T20:10:53.196Z,99.90
2022-12-06T20:13:58.436Z,99.90
2022-12-06T20:17:00.823Z,99.90
2022-12-06T20:20:03.407Z,99.90
2022-12-06T20:23:10.222Z,99.90
2022-12-06T20:26:15.618Z,99.90
2022-12-06T20:29:18.254Z,99.90
2022-12-06T20:32:20.389Z,99.90
2022-12-06T20:35:22.414Z,99.90
2022-12-06T20:38:24.445Z,99.90
2022-12-06T20:41:32.643Z,99.90
2022-12-06T20:44:35.343Z,99.90
2022-12-06T20:47:37.520Z,99.90
2022-12-06T20:50:40.010Z,99.90
2022-12-06T20:53:42.248Z,99.90
2022-12-06T20:56:45.196Z,99.90
2022-12-06T20:59:47.139Z,99.90
2022-12-06T21:02:49.211Z,99.90
2022-12-06T21:06:01.254Z,99.90
2022-12-06T21:09:03.704Z,99.90
2022-12-06T21:12:05.922Z,99.90
2022-12-06T21:15:08.434Z,99.90
2022-12-06T21:18:10.458Z,99.90
2022-12-06T21:21:23.220Z,99.90
2022-12-06T21:24:25.417Z,99.90
2022-12-06T21:27:29.043Z,99.90
2022-12-06T21:30:32.360Z,99.90
2022-12-06T21:33:34.356Z,99.90
2022-12-06T21:36:37.313Z,99.90
2022-12-06T21:39:39.316Z,99.90
2022-12-06T21:42:41.264Z,99.90
2022-12-06T21:45:43.258Z,99.90
2022-12-06T21:48:51.260Z,99.90
2022-12-06T21:52:00.235Z,99.90
2022-12-06T21:55:05.002Z,99.90
2022-12-06T21:58:08.970Z,99.90
2022-12-06T22:01:14.346Z,99.90
2022-12-06T22:04:17.809Z,99.90
2022-12-06T22:07:20.011Z,99.90
2022-12-06T22:10:22.069Z,99.90
2022-12-06T22:13:24.090Z,99.90
2022-12-06T22:16:27.084Z,99.90
2022-12-06T22:19:31.410Z,99.90
2022-12-06T22:22:34.065Z,99.90
2022-12-06T22:25:39.804Z,99.90
2022-12-06T22:28:42.250Z,99.90
2022-12-06T22:31:44.546Z,99.90
2022-12-06T22:34:46.979Z,99.90
2022-12-06T22:37:49.099Z,99.90
2022-12-06T22:40:57.694Z,99.90
2022-12-06T22:44:05.972Z,99.90
2022-12-06T22:47:08.287Z,99.90
2022-12-06T22:50:10.519Z,99.90
2022-12-06T22:53:12.943Z,99.90
2022-12-06T22:56:15.953Z,99.90
2022-12-06T22:59:18.963Z,99.90
2022-12-06T23:02:21.222Z,99.90
2022-12-06T23:05:23.494Z,99.90
2022-12-06T23:08:25.798Z,99.90
2022-12-06T23:11:30.501Z,99.90
2022-12-06T23:14:32.555Z,99.90
2022-12-06T23:17:34.644Z,99.90
2022-12-06T23:20:36.661Z,99.90
2022-12-06T23:23:42.646Z,99.90
2022-12-06T23:26:51.837Z,99.90
2022-12-06T23:29:57.867Z,99.90
2022-12-06T23:33:07.111Z,99.90
2022-12-06T23:36:15.215Z,99.90
2022-12-06T23:39:17.680Z,99.90
2022-12-06T23:42:19.697Z,99.90
2022-12-06T23:45:22.214Z,99.90
2022-12-06T23:48:24.508Z,99.90
2022-12-06T23:51:34.184Z,99.90
2022-12-06T23:54:37.077Z,99.90
2022-12-06T23:57:39.205Z,99.90
